sensor_id;sensor_type;location;lat;lon;timestamp;temperature;humidity
51655;DHT22;37732;53.106;7.030;2023-08-20T00:00:51;15.40;99.90
51655;DHT22;37732;53.106;7.030;2023-08-20T00:03:18;15.40;99.90
51655;DHT22;37732;53.106;7.030;2023-08-20T00:05:46;15.30;99.90
51655;DHT22;37732;53.106;7.030;2023-08-20T00:08:12;15.30;99.90
51655;DHT22;37732;53.106;7.030;2023-08-20T00:10:41;15.30;99.90
51655;DHT22;37732;53.106;7.030;2023-08-20T00:13:07;15.20;99.90
51655;DHT22;37732;53.106;7.030;2023-08-20T00:15:33;15.20;99.90
51655;DHT22;37732;53.106;7.030;2023-08-20T00:18:01;15.20;99.90
51655;DHT22;37732;53.106;7.030;2023-08-20T00:20:29;15.10;99.90
51655;DHT22;37732;53.106;7.030;2023-08-20T00:22:55;15.10;99.90
51655;DHT22;37732;53.106;7.030;2023-08-20T00:25:21;15.10;99.90
51655;DHT22;37732;53.106;7.030;2023-08-20T00:27:49;15.00;99.90
51655;DHT22;37732;53.106;7.030;2023-08-20T00:30:15;14.90;99.90
51655;DHT22;37732;53.106;7.030;2023-08-20T00:32:41;14.90;99.90
51655;DHT22;37732;53.106;7.030;2023-08-20T00:35:08;14.90;99.90
51655;DHT22;37732;53.106;7.030;2023-08-20T00:37:34;14.90;99.90
51655;DHT22;37732;53.106;7.030;2023-08-20T00:40:01;14.90;99.90
51655;DHT22;37732;53.106;7.030;2023-08-20T00:42:31;14.80;99.90
51655;DHT22;37732;53.106;7.030;2023-08-20T00:44:57;14.80;99.90
51655;DHT22;37732;53.106;7.030;2023-08-20T00:47:23;14.80;99.90
51655;DHT22;37732;53.106;7.030;2023-08-20T00:49:49;14.80;99.90
51655;DHT22;37732;53.106;7.030;2023-08-20T00:52:16;14.80;99.90
51655;DHT22;37732;53.106;7.030;2023-08-20T00:54:47;14.80;99.90
51655;DHT22;37732;53.106;7.030;2023-08-20T00:57:14;14.70;99.90
51655;DHT22;37732;53.106;7.030;2023-08-20T00:59:47;14.70;99.90
51655;DHT22;37732;53.106;7.030;2023-08-20T01:02:19;14.70;99.90
51655;DHT22;37732;53.106;7.030;2023-08-20T01:04:47;14.60;99.90
51655;DHT22;37732;53.106;7.030;2023-08-20T01:12:36;14.50;99.90
51655;DHT22;37732;53.106;7.030;2023-08-20T01:15:03;14.50;99.90
51655;DHT22;37732;53.106;7.030;2023-08-20T01:17:29;14.50;99.90
51655;DHT22;37732;53.106;7.030;2023-08-20T01:19:55;14.50;99.90
51655;DHT22;37732;53.106;7.030;2023-08-20T01:28:31;14.40;99.90
51655;DHT22;37732;53.106;7.030;2023-08-20T01:30:59;14.30;99.90
51655;DHT22;37732;53.106;7.030;2023-08-20T01:33:29;14.40;99.90
51655;DHT22;37732;53.106;7.030;2023-08-20T01:35:56;14.30;99.90
51655;DHT22;37732;53.106;7.030;2023-08-20T01:38:26;14.30;99.90
51655;DHT22;37732;53.106;7.030;2023-08-20T01:40:52;14.40;99.90
51655;DHT22;37732;53.106;7.030;2023-08-20T01:43:18;14.40;99.90
51655;DHT22;37732;53.106;7.030;2023-08-20T01:45:44;14.40;99.90
51655;DHT22;37732;53.106;7.030;2023-08-20T01:48:10;14.40;99.90
51655;DHT22;37732;53.106;7.030;2023-08-20T01:50:36;14.30;99.90
51655;DHT22;37732;53.106;7.030;2023-08-20T01:53:05;14.30;99.90
51655;DHT22;37732;53.106;7.030;2023-08-20T01:55:31;14.30;99.90
51655;DHT22;37732;53.106;7.030;2023-08-20T01:57:57;14.30;99.90
51655;DHT22;37732;53.106;7.030;2023-08-20T02:00:23;14.30;99.90
51655;DHT22;37732;53.106;7.030;2023-08-20T02:02:49;14.30;99.90
51655;DHT22;37732;53.106;7.030;2023-08-20T02:05:17;14.20;99.90
51655;DHT22;37732;53.106;7.030;2023-08-20T02:07:44;14.30;99.90
51655;DHT22;37732;53.106;7.030;2023-08-20T02:10:10;14.20;99.90
51655;DHT22;37732;53.106;7.030;2023-08-20T02:12:36;14.20;99.90
51655;DHT22;37732;53.106;7.030;2023-08-20T02:15:02;14.20;99.90
51655;DHT22;37732;53.106;7.030;2023-08-20T02:17:29;14.20;99.90
51655;DHT22;37732;53.106;7.030;2023-08-20T02:19:58;14.00;99.90
51655;DHT22;37732;53.106;7.030;2023-08-20T02:22:24;14.10;99.90
51655;DHT22;37732;53.106;7.030;2023-08-20T02:24:50;14.10;99.90
51655;DHT22;37732;53.106;7.030;2023-08-20T02:27:16;13.50;99.90
51655;DHT22;37732;53.106;7.030;2023-08-20T02:29:41;14.10;99.90
51655;DHT22;37732;53.106;7.030;2023-08-20T02:32:07;14.20;99.90
51655;DHT22;37732;53.106;7.030;2023-08-20T02:34:36;14.10;99.90
51655;DHT22;37732;53.106;7.030;2023-08-20T02:37:03;14.10;99.90
51655;DHT22;37732;53.106;7.030;2023-08-20T02:39:29;14.10;99.90
51655;DHT22;37732;53.106;7.030;2023-08-20T02:41:56;14.10;99.90
51655;DHT22;37732;53.106;7.030;2023-08-20T02:44:22;14.10;99.90
51655;DHT22;37732;53.106;7.030;2023-08-20T02:46:47;14.00;99.90
51655;DHT22;37732;53.106;7.030;2023-08-20T02:49:13;13.90;99.90
51655;DHT22;37732;53.106;7.030;2023-08-20T02:51:42;14.00;99.90
51655;DHT22;37732;53.106;7.030;2023-08-20T02:54:08;14.00;99.90
51655;DHT22;37732;53.106;7.030;2023-08-20T02:56:34;13.90;99.90
51655;DHT22;37732;53.106;7.030;2023-08-20T02:59:00;13.90;99.90
51655;DHT22;37732;53.106;7.030;2023-08-20T03:01:29;13.90;99.90
51655;DHT22;37732;53.106;7.030;2023-08-20T03:03:55;14.00;99.90
51655;DHT22;37732;53.106;7.030;2023-08-20T03:06:21;14.00;99.90
51655;DHT22;37732;53.106;7.030;2023-08-20T03:08:48;13.90;99.90
51655;DHT22;37732;53.106;7.030;2023-08-20T03:11:14;13.80;99.90
51655;DHT22;37732;53.106;7.030;2023-08-20T10:05:24;26.80;99.90
51655;DHT22;37732;53.106;7.030;2023-08-20T10:07:50;26.80;99.90
51655;DHT22;37732;53.106;7.030;2023-08-20T10:10:20;26.90;99.90
51655;DHT22;37732;53.106;7.030;2023-08-20T10:12:47;26.90;99.90
51655;DHT22;37732;53.106;7.030;2023-08-20T10:15:15;26.90;99.90
51655;DHT22;37732;53.106;7.030;2023-08-20T10:17:42;26.90;99.90
51655;DHT22;37732;53.106;7.030;2023-08-20T10:20:14;26.90;99.90
51655;DHT22;37732;53.106;7.030;2023-08-20T10:22:45;26.90;99.90
51655;DHT22;37732;53.106;7.030;2023-08-20T10:25:39;26.90;99.90
51655;DHT22;37732;53.106;7.030;2023-08-20T10:28:24;27.00;99.90
51655;DHT22;37732;53.106;7.030;2023-08-20T10:31:13;26.70;99.90
51655;DHT22;37732;53.106;7.030;2023-08-20T10:36:20;27.00;99.90
51655;DHT22;37732;53.106;7.030;2023-08-20T10:38:54;27.20;99.90
51655;DHT22;37732;53.106;7.030;2023-08-20T10:41:28;27.00;99.90
51655;DHT22;37732;53.106;7.030;2023-08-20T10:44:00;26.90;99.90
51655;DHT22;37732;53.106;7.030;2023-08-20T10:46:29;27.00;99.90
51655;DHT22;37732;53.106;7.030;2023-08-20T10:49:04;26.90;99.90
51655;DHT22;37732;53.106;7.030;2023-08-20T10:51:36;26.90;99.90
51655;DHT22;37732;53.106;7.030;2023-08-20T10:54:07;26.90;99.90
51655;DHT22;37732;53.106;7.030;2023-08-20T10:56:44;27.10;99.90
51655;DHT22;37732;53.106;7.030;2023-08-20T10:59:30;27.20;99.90
51655;DHT22;37732;53.106;7.030;2023-08-20T11:01:58;27.40;99.90
51655;DHT22;37732;53.106;7.030;2023-08-20T11:04:27;27.40;99.90
51655;DHT22;37732;53.106;7.030;2023-08-20T11:06:56;27.40;99.90
51655;DHT22;37732;53.106;7.030;2023-08-20T11:09:26;27.50;99.90
51655;DHT22;37732;53.106;7.030;2023-08-20T11:11:52;27.70;99.90
51655;DHT22;37732;53.106;7.030;2023-08-20T11:14:22;27.80;99.90
51655;DHT22;37732;53.106;7.030;2023-08-20T11:16:49;27.80;99.90
51655;DHT22;37732;53.106;7.030;2023-08-20T11:19:23;27.90;99.90
51655;DHT22;37732;53.106;7.030;2023-08-20T11:21:50;28.00;99.90
51655;DHT22;37732;53.106;7.030;2023-08-20T11:24:17;28.10;99.90
51655;DHT22;37732;53.106;7.030;2023-08-20T11:26:48;28.30;99.90
51655;DHT22;37732;53.106;7.030;2023-08-20T11:29:17;28.40;99.90
51655;DHT22;37732;53.106;7.030;2023-08-20T11:31:50;28.40;99.80
51655;DHT22;37732;53.106;7.030;2023-08-20T11:34:20;28.50;99.50
51655;DHT22;37732;53.106;7.030;2023-08-20T11:36:46;28.50;99.90
51655;DHT22;37732;53.106;7.030;2023-08-20T11:39:15;28.60;99.80
51655;DHT22;37732;53.106;7.030;2023-08-20T11:41:43;28.60;99.70
51655;DHT22;37732;53.106;7.030;2023-08-20T11:44:21;28.60;99.90
51655;DHT22;37732;53.106;7.030;2023-08-20T11:46:48;28.80;99.30
51655;DHT22;37732;53.106;7.030;2023-08-20T11:49:15;28.70;99.00
51655;DHT22;37732;53.106;7.030;2023-08-20T11:51:48;28.80;98.80
51655;DHT22;37732;53.106;7.030;2023-08-20T11:54:16;28.80;97.60
51655;DHT22;37732;53.106;7.030;2023-08-20T11:56:50;28.80;97.50
51655;DHT22;37732;53.106;7.030;2023-08-20T11:59:21;28.90;98.30
51655;DHT22;37732;53.106;7.030;2023-08-20T12:02:01;28.90;97.70
51655;DHT22;37732;53.106;7.030;2023-08-20T12:04:31;29.00;97.10
51655;DHT22;37732;53.106;7.030;2023-08-20T12:09:34;28.80;98.20
51655;DHT22;37732;53.106;7.030;2023-08-20T12:12:10;28.80;96.40
51655;DHT22;37732;53.106;7.030;2023-08-20T12:14:36;28.80;97.30
51655;DHT22;37732;53.106;7.030;2023-08-20T12:17:02;28.70;96.40
51655;DHT22;37732;53.106;7.030;2023-08-20T12:19:31;28.70;95.90
51655;DHT22;37732;53.106;7.030;2023-08-20T12:21:56;28.60;96.30
51655;DHT22;37732;53.106;7.030;2023-08-20T12:24:22;28.60;96.80
51655;DHT22;37732;53.106;7.030;2023-08-20T12:26:49;28.70;96.80
51655;DHT22;37732;53.106;7.030;2023-08-20T12:29:16;28.70;94.50
51655;DHT22;37732;53.106;7.030;2023-08-20T12:31:42;28.70;94.10
51655;DHT22;37732;53.106;7.030;2023-08-20T12:34:09;28.80;95.40
51655;DHT22;37732;53.106;7.030;2023-08-20T12:36:38;29.00;96.40
51655;DHT22;37732;53.106;7.030;2023-08-20T12:39:05;28.90;93.90
51655;DHT22;37732;53.106;7.030;2023-08-20T12:41:31;29.00;93.30
51655;DHT22;37732;53.106;7.030;2023-08-20T12:43:57;28.90;92.80
51655;DHT22;37732;53.106;7.030;2023-08-20T12:46:24;28.70;93.50
51655;DHT22;37732;53.106;7.030;2023-08-20T12:48:50;28.60;94.20
51655;DHT22;37732;53.106;7.030;2023-08-20T12:51:17;28.80;95.40
51655;DHT22;37732;53.106;7.030;2023-08-20T12:53:46;29.00;95.00
51655;DHT22;37732;53.106;7.030;2023-08-20T12:56:12;29.00;94.90
51655;DHT22;37732;53.106;7.030;2023-08-20T12:58:38;28.70;95.10
51655;DHT22;37732;53.106;7.030;2023-08-20T13:01:08;28.60;95.80
51655;DHT22;37732;53.106;7.030;2023-08-20T13:03:34;28.50;96.30
51655;DHT22;37732;53.106;7.030;2023-08-20T13:06:01;28.40;96.30
51655;DHT22;37732;53.106;7.030;2023-08-20T13:08:27;28.30;96.00
51655;DHT22;37732;53.106;7.030;2023-08-20T13:10:58;28.40;96.10
51655;DHT22;37732;53.106;7.030;2023-08-20T13:13:28;28.50;95.30
51655;DHT22;37732;53.106;7.030;2023-08-20T13:15:56;28.60;95.50
51655;DHT22;37732;53.106;7.030;2023-08-20T13:18:22;28.60;94.90
51655;DHT22;37732;53.106;7.030;2023-08-20T13:20:53;28.50;94.80
51655;DHT22;37732;53.106;7.030;2023-08-20T13:23:23;28.40;94.90
51655;DHT22;37732;53.106;7.030;2023-08-20T13:25:52;28.50;94.90
51655;DHT22;37732;53.106;7.030;2023-08-20T13:28:19;28.50;94.80
51655;DHT22;37732;53.106;7.030;2023-08-20T13:30:44;28.60;95.30
51655;DHT22;37732;53.106;7.030;2023-08-20T13:33:15;28.60;94.90
51655;DHT22;37732;53.106;7.030;2023-08-20T13:35:43;28.60;93.80
51655;DHT22;37732;53.106;7.030;2023-08-20T13:38:10;28.40;93.30
51655;DHT22;37732;53.106;7.030;2023-08-20T13:40:36;28.30;94.10
51655;DHT22;37732;53.106;7.030;2023-08-20T13:43:02;28.30;94.10
51655;DHT22;37732;53.106;7.030;2023-08-20T13:45:28;28.40;93.50
51655;DHT22;37732;53.106;7.030;2023-08-20T13:47:54;28.50;93.40
51655;DHT22;37732;53.106;7.030;2023-08-20T13:50:23;28.50;93.90
51655;DHT22;37732;53.106;7.030;2023-08-20T13:52:49;28.50;93.80
51655;DHT22;37732;53.106;7.030;2023-08-20T13:55:17;28.50;94.30
51655;DHT22;37732;53.106;7.030;2023-08-20T13:57:43;28.50;93.80
51655;DHT22;37732;53.106;7.030;2023-08-20T14:00:10;28.60;92.40
51655;DHT22;37732;53.106;7.030;2023-08-20T14:02:40;28.50;93.30
51655;DHT22;37732;53.106;7.030;2023-08-20T14:05:07;28.50;93.60
51655;DHT22;37732;53.106;7.030;2023-08-20T14:07:33;28.60;94.40
51655;DHT22;37732;53.106;7.030;2023-08-20T14:10:04;28.60;92.40
51655;DHT22;37732;53.106;7.030;2023-08-20T14:12:31;28.60;93.00
51655;DHT22;37732;53.106;7.030;2023-08-20T14:14:57;28.70;93.30
51655;DHT22;37732;53.106;7.030;2023-08-20T14:17:24;28.90;92.80
51655;DHT22;37732;53.106;7.030;2023-08-20T14:19:49;28.70;90.00
51655;DHT22;37732;53.106;7.030;2023-08-20T14:22:17;28.50;91.00
51655;DHT22;37732;53.106;7.030;2023-08-20T14:24:43;28.50;92.10
51655;DHT22;37732;53.106;7.030;2023-08-20T14:27:09;28.40;90.90
51655;DHT22;37732;53.106;7.030;2023-08-20T14:29:37;28.50;91.30
51655;DHT22;37732;53.106;7.030;2023-08-20T14:32:04;28.50;91.60
51655;DHT22;37732;53.106;7.030;2023-08-20T14:34:30;28.60;91.80
51655;DHT22;37732;53.106;7.030;2023-08-20T14:36:56;28.70;90.70
51655;DHT22;37732;53.106;7.030;2023-08-20T14:39:22;28.50;91.90
51655;DHT22;37732;53.106;7.030;2023-08-20T14:41:49;28.50;92.60
51655;DHT22;37732;53.106;7.030;2023-08-20T14:44:15;28.60;91.80
51655;DHT22;37732;53.106;7.030;2023-08-20T14:46:41;28.50;91.90
51655;DHT22;37732;53.106;7.030;2023-08-20T14:49:06;28.40;91.70
51655;DHT22;37732;53.106;7.030;2023-08-20T14:51:33;28.40;92.40
51655;DHT22;37732;53.106;7.030;2023-08-20T14:54:03;28.60;93.10
51655;DHT22;37732;53.106;7.030;2023-08-20T14:56:29;28.70;92.60
51655;DHT22;37732;53.106;7.030;2023-08-20T14:58:55;28.60;91.80
51655;DHT22;37732;53.106;7.030;2023-08-20T15:01:21;28.70;91.40
51655;DHT22;37732;53.106;7.030;2023-08-20T15:03:47;28.70;91.80
51655;DHT22;37732;53.106;7.030;2023-08-20T15:06:18;28.50;90.60
51655;DHT22;37732;53.106;7.030;2023-08-20T15:08:51;28.30;91.90
51655;DHT22;37732;53.106;7.030;2023-08-20T15:11:17;28.20;92.20
51655;DHT22;37732;53.106;7.030;2023-08-20T15:13:43;27.90;92.80
51655;DHT22;37732;53.106;7.030;2023-08-20T15:16:09;27.80;92.40
51655;DHT22;37732;53.106;7.030;2023-08-20T15:18:35;27.80;91.70
51655;DHT22;37732;53.106;7.030;2023-08-20T15:21:01;27.90;92.00
51655;DHT22;37732;53.106;7.030;2023-08-20T15:23:32;27.90;91.90
51655;DHT22;37732;53.106;7.030;2023-08-20T15:25:59;27.70;92.20
51655;DHT22;37732;53.106;7.030;2023-08-20T15:28:27;27.60;92.50
51655;DHT22;37732;53.106;7.030;2023-08-20T15:30:56;27.40;93.20
51655;DHT22;37732;53.106;7.030;2023-08-20T15:33:23;27.20;93.30
51655;DHT22;37732;53.106;7.030;2023-08-20T15:35:49;27.40;92.70
51655;DHT22;37732;53.106;7.030;2023-08-20T15:38:15;27.40;92.50
51655;DHT22;37732;53.106;7.030;2023-08-20T15:40:41;27.60;92.30
51655;DHT22;37732;53.106;7.030;2023-08-20T15:43:10;27.70;91.90
51655;DHT22;37732;53.106;7.030;2023-08-20T15:45:36;27.80;91.30
51655;DHT22;37732;53.106;7.030;2023-08-20T15:48:02;28.00;90.60
51655;DHT22;37732;53.106;7.030;2023-08-20T15:50:28;28.00;90.50
51655;DHT22;37732;53.106;7.030;2023-08-20T15:52:57;28.10;90.30
51655;DHT22;37732;53.106;7.030;2023-08-20T15:55:23;28.00;89.10
51655;DHT22;37732;53.106;7.030;2023-08-20T15:57:50;28.00;90.60
51655;DHT22;37732;53.106;7.030;2023-08-20T16:00:16;28.00;91.00
51655;DHT22;37732;53.106;7.030;2023-08-20T16:02:46;28.00;90.20
51655;DHT22;37732;53.106;7.030;2023-08-20T16:05:15;27.90;90.00
51655;DHT22;37732;53.106;7.030;2023-08-20T16:07:41;27.90;91.30
51655;DHT22;37732;53.106;7.030;2023-08-20T16:10:08;27.90;90.90
51655;DHT22;37732;53.106;7.030;2023-08-20T16:12:34;27.90;91.30
51655;DHT22;37732;53.106;7.030;2023-08-20T16:15:00;27.80;91.80
51655;DHT22;37732;53.106;7.030;2023-08-20T16:17:26;27.80;91.60
51655;DHT22;37732;53.106;7.030;2023-08-20T16:19:53;27.40;90.80
51655;DHT22;37732;53.106;7.030;2023-08-20T16:22:19;27.20;91.80
51655;DHT22;37732;53.106;7.030;2023-08-20T16:24:47;27.00;92.40
51655;DHT22;37732;53.106;7.030;2023-08-20T16:27:13;26.80;91.10
51655;DHT22;37732;53.106;7.030;2023-08-20T16:29:39;26.60;90.80
51655;DHT22;37732;53.106;7.030;2023-08-20T16:32:05;26.40;91.20
51655;DHT22;37732;53.106;7.030;2023-08-20T16:34:34;26.20;92.50
51655;DHT22;37732;53.106;7.030;2023-08-20T16:37:00;26.10;92.50
51655;DHT22;37732;53.106;7.030;2023-08-20T16:39:25;26.00;92.10
51655;DHT22;37732;53.106;7.030;2023-08-20T16:41:51;25.90;92.50
51655;DHT22;37732;53.106;7.030;2023-08-20T16:44:18;25.90;92.60
51655;DHT22;37732;53.106;7.030;2023-08-20T16:46:46;25.80;93.50
51655;DHT22;37732;53.106;7.030;2023-08-20T16:49:12;25.70;94.20
51655;DHT22;37732;53.106;7.030;2023-08-20T16:51:38;25.70;94.20
51655;DHT22;37732;53.106;7.030;2023-08-20T16:54:04;25.60;94.40
51655;DHT22;37732;53.106;7.030;2023-08-20T16:56:35;25.50;94.90
51655;DHT22;37732;53.106;7.030;2023-08-20T16:59:03;25.40;95.30
51655;DHT22;37732;53.106;7.030;2023-08-20T17:01:30;25.30;95.40
51655;DHT22;37732;53.106;7.030;2023-08-20T17:03:55;25.30;95.80
51655;DHT22;37732;53.106;7.030;2023-08-20T17:06:22;25.20;95.40
51655;DHT22;37732;53.106;7.030;2023-08-20T17:08:48;25.00;95.30
51655;DHT22;37732;53.106;7.030;2023-08-20T17:11:17;24.90;95.50
51655;DHT22;37732;53.106;7.030;2023-08-20T17:13:42;24.80;96.70
51655;DHT22;37732;53.106;7.030;2023-08-20T17:16:08;24.70;97.40
51655;DHT22;37732;53.106;7.030;2023-08-20T17:18:36;24.70;98.20
51655;DHT22;37732;53.106;7.030;2023-08-20T17:21:04;24.60;98.10
51655;DHT22;37732;53.106;7.030;2023-08-20T17:23:30;24.50;98.30
51655;DHT22;37732;53.106;7.030;2023-08-20T17:25:59;24.50;99.30
51655;DHT22;37732;53.106;7.030;2023-08-20T17:28:25;24.40;99.90
51655;DHT22;37732;53.106;7.030;2023-08-20T17:30:51;24.30;99.90
51655;DHT22;37732;53.106;7.030;2023-08-20T17:33:17;24.20;99.90
51655;DHT22;37732;53.106;7.030;2023-08-20T17:35:43;24.20;99.90
51655;DHT22;37732;53.106;7.030;2023-08-20T17:38:10;24.10;99.90
51655;DHT22;37732;53.106;7.030;2023-08-20T17:40:42;24.10;99.90
51655;DHT22;37732;53.106;7.030;2023-08-20T17:43:09;24.00;99.90
51655;DHT22;37732;53.106;7.030;2023-08-20T17:45:35;23.90;99.90
51655;DHT22;37732;53.106;7.030;2023-08-20T17:48:07;23.90;99.90
51655;DHT22;37732;53.106;7.030;2023-08-20T17:50:34;23.80;99.90
51655;DHT22;37732;53.106;7.030;2023-08-20T17:53:01;23.80;99.90
51655;DHT22;37732;53.106;7.030;2023-08-20T17:55:31;23.80;99.90
51655;DHT22;37732;53.106;7.030;2023-08-20T17:58:02;23.80;99.90
51655;DHT22;37732;53.106;7.030;2023-08-20T18:00:31;23.80;99.90
51655;DHT22;37732;53.106;7.030;2023-08-20T18:02:57;23.80;99.90
51655;DHT22;37732;53.106;7.030;2023-08-20T18:05:24;23.80;99.90
51655;DHT22;37732;53.106;7.030;2023-08-20T18:07:54;23.80;99.90
51655;DHT22;37732;53.106;7.030;2023-08-20T18:10:24;23.80;99.90
51655;DHT22;37732;53.106;7.030;2023-08-20T18:12:50;23.70;99.90
51655;DHT22;37732;53.106;7.030;2023-08-20T18:15:16;23.70;99.90
51655;DHT22;37732;53.106;7.030;2023-08-20T18:17:42;23.60;99.90
51655;DHT22;37732;53.106;7.030;2023-08-20T18:20:10;23.60;99.90
51655;DHT22;37732;53.106;7.030;2023-08-20T18:22:40;23.50;99.90
51655;DHT22;37732;53.106;7.030;2023-08-20T18:25:09;23.40;99.90
51655;DHT22;37732;53.106;7.030;2023-08-20T18:27:36;23.40;99.90
51655;DHT22;37732;53.106;7.030;2023-08-20T18:30:02;23.30;99.90
51655;DHT22;37732;53.106;7.030;2023-08-20T18:32:33;23.20;99.90
51655;DHT22;37732;53.106;7.030;2023-08-20T18:35:00;23.10;99.90
51655;DHT22;37732;53.106;7.030;2023-08-20T18:37:26;23.10;99.90
51655;DHT22;37732;53.106;7.030;2023-08-20T18:39:52;23.00;99.90
51655;DHT22;37732;53.106;7.030;2023-08-20T18:42:18;22.90;99.90
51655;DHT22;37732;53.106;7.030;2023-08-20T18:44:45;22.90;99.90
51655;DHT22;37732;53.106;7.030;2023-08-20T18:47:11;22.90;99.90
51655;DHT22;37732;53.106;7.030;2023-08-20T18:49:36;22.80;99.90
51655;DHT22;37732;53.106;7.030;2023-08-20T18:52:03;22.80;99.90
51655;DHT22;37732;53.106;7.030;2023-08-20T18:54:33;22.70;99.90
51655;DHT22;37732;53.106;7.030;2023-08-20T18:57:01;22.60;99.90
51655;DHT22;37732;53.106;7.030;2023-08-20T18:59:31;22.50;99.90
51655;DHT22;37732;53.106;7.030;2023-08-20T19:01:58;22.40;99.90
51655;DHT22;37732;53.106;7.030;2023-08-20T19:04:25;22.40;99.90
51655;DHT22;37732;53.106;7.030;2023-08-20T19:06:51;22.30;99.90
51655;DHT22;37732;53.106;7.030;2023-08-20T19:09:17;22.10;99.90
51655;DHT22;37732;53.106;7.030;2023-08-20T19:11:43;22.00;99.90
51655;DHT22;37732;53.106;7.030;2023-08-20T19:14:09;22.00;99.90
51655;DHT22;37732;53.106;7.030;2023-08-20T19:16:35;21.90;99.90
51655;DHT22;37732;53.106;7.030;2023-08-20T19:19:02;21.80;99.90
51655;DHT22;37732;53.106;7.030;2023-08-20T19:21:28;21.70;99.90
51655;DHT22;37732;53.106;7.030;2023-08-20T19:23:54;21.60;99.90
51655;DHT22;37732;53.106;7.030;2023-08-20T19:26:20;21.50;99.90
51655;DHT22;37732;53.106;7.030;2023-08-20T19:28:46;21.40;99.90
51655;DHT22;37732;53.106;7.030;2023-08-20T19:31:17;21.30;99.90
51655;DHT22;37732;53.106;7.030;2023-08-20T19:33:47;21.30;99.90
51655;DHT22;37732;53.106;7.030;2023-08-20T19:36:17;21.10;99.90
51655;DHT22;37732;53.106;7.030;2023-08-20T19:38:43;21.00;99.90
51655;DHT22;37732;53.106;7.030;2023-08-20T19:41:09;20.90;99.90
51655;DHT22;37732;53.106;7.030;2023-08-20T19:43:35;20.90;99.90
51655;DHT22;37732;53.106;7.030;2023-08-20T19:46:01;20.80;99.90
51655;DHT22;37732;53.106;7.030;2023-08-20T19:48:27;20.80;99.90
51655;DHT22;37732;53.106;7.030;2023-08-20T19:50:53;20.70;99.90
51655;DHT22;37732;53.106;7.030;2023-08-20T19:53:21;20.60;99.90
51655;DHT22;37732;53.106;7.030;2023-08-20T19:55:48;20.60;99.90
51655;DHT22;37732;53.106;7.030;2023-08-20T19:58:14;20.60;99.90
51655;DHT22;37732;53.106;7.030;2023-08-20T20:00:40;20.50;99.90
51655;DHT22;37732;53.106;7.030;2023-08-20T20:03:10;20.50;99.90
51655;DHT22;37732;53.106;7.030;2023-08-20T20:05:36;20.40;99.90
51655;DHT22;37732;53.106;7.030;2023-08-20T20:08:03;20.40;99.90
51655;DHT22;37732;53.106;7.030;2023-08-20T20:10:29;20.30;99.90
51655;DHT22;37732;53.106;7.030;2023-08-20T20:12:55;20.20;99.90
51655;DHT22;37732;53.106;7.030;2023-08-20T20:15:21;20.10;99.90
51655;DHT22;37732;53.106;7.030;2023-08-20T20:17:47;20.10;99.90
51655;DHT22;37732;53.106;7.030;2023-08-20T20:20:15;20.00;99.90
51655;DHT22;37732;53.106;7.030;2023-08-20T20:22:42;19.80;99.90
51655;DHT22;37732;53.106;7.030;2023-08-20T20:25:10;19.70;99.90
51655;DHT22;37732;53.106;7.030;2023-08-20T20:27:41;19.70;99.90
51655;DHT22;37732;53.106;7.030;2023-08-20T20:30:10;19.60;99.90
51655;DHT22;37732;53.106;7.030;2023-08-20T20:32:36;19.60;99.90
51655;DHT22;37732;53.106;7.030;2023-08-20T20:35:03;19.50;99.90
51655;DHT22;37732;53.106;7.030;2023-08-20T20:37:29;19.50;99.90
51655;DHT22;37732;53.106;7.030;2023-08-20T20:39:55;19.40;99.90
51655;DHT22;37732;53.106;7.030;2023-08-20T20:42:21;19.40;99.90
51655;DHT22;37732;53.106;7.030;2023-08-20T20:44:48;19.30;99.90
51655;DHT22;37732;53.106;7.030;2023-08-20T20:47:14;19.30;99.90
51655;DHT22;37732;53.106;7.030;2023-08-20T20:49:40;19.20;99.90
51655;DHT22;37732;53.106;7.030;2023-08-20T20:52:06;19.20;99.90
51655;DHT22;37732;53.106;7.030;2023-08-20T20:54:32;19.10;99.90
51655;DHT22;37732;53.106;7.030;2023-08-20T20:57:01;19.10;99.90
51655;DHT22;37732;53.106;7.030;2023-08-20T20:59:27;19.00;99.90
51655;DHT22;37732;53.106;7.030;2023-08-20T21:01:53;19.00;99.90
51655;DHT22;37732;53.106;7.030;2023-08-20T21:04:19;19.00;99.90
51655;DHT22;37732;53.106;7.030;2023-08-20T21:06:45;18.80;99.90
51655;DHT22;37732;53.106;7.030;2023-08-20T21:09:11;18.70;99.90
51655;DHT22;37732;53.106;7.030;2023-08-20T21:11:37;18.70;99.90
51655;DHT22;37732;53.106;7.030;2023-08-20T21:14:02;18.60;99.90
51655;DHT22;37732;53.106;7.030;2023-08-20T21:16:28;18.60;99.90
51655;DHT22;37732;53.106;7.030;2023-08-20T21:18:54;18.50;99.90
51655;DHT22;37732;53.106;7.030;2023-08-20T21:21:23;18.50;99.90
51655;DHT22;37732;53.106;7.030;2023-08-20T21:23:50;18.40;99.90
51655;DHT22;37732;53.106;7.030;2023-08-20T21:26:23;18.40;99.90
51655;DHT22;37732;53.106;7.030;2023-08-20T21:28:50;18.30;99.90
51655;DHT22;37732;53.106;7.030;2023-08-20T21:31:16;18.30;99.90
51655;DHT22;37732;53.106;7.030;2023-08-20T21:33:42;18.30;99.90
51655;DHT22;37732;53.106;7.030;2023-08-20T21:36:08;18.20;99.90
51655;DHT22;37732;53.106;7.030;2023-08-20T21:38:34;18.20;99.90
51655;DHT22;37732;53.106;7.030;2023-08-20T21:41:00;18.10;99.90
